Flight Track Log - Related Links

Times and Time Zones

All times are in EDT time to prevent confusion due to time zone crossing. See the JZA8193 flight status page for this flight to view local times or setup timezone preferences in your user account.

Time Position Orientation Groundspeed Altitude Reporting Facility
EDT Latitude Longitude Course Direction KTS MPH feet Rate Location/Type
Mon 02:52:09 PM 50.7000 -120.4833 210° Southwest 110 127 3,000  Level Vancouver Center
Mon 02:53:09 PM 50.7000 -120.5333 270° West 130 150 4,400 1,450 Climbing Vancouver Center
Mon 02:54:09 PM 50.7167 -120.5833 298° West 140 161 5,900 1,550 Climbing Vancouver Center
Mon 02:55:00 PM 50.4757 -120.5076 212° Southwest  Level FlightAware Approximate
Mon 02:55:09 PM 50.7167 -120.6667 270° West 140 161 7,500  Level Vancouver Center
Mon 02:56:00 PM 50.4113 -120.5548 210° Southwest  Level FlightAware Approximate
Mon 02:56:09 PM 50.7333 -120.7167 298° West 150 173 9,000  Level Vancouver Center
Mon 02:57:00 PM 50.3477 -120.6114 210° Southwest  Level FlightAware Approximate
Mon 02:57:09 PM 50.7167 -120.8000 252° West 160 184 10,500  Level Vancouver Center
Mon 02:58:09 PM 50.6833 -120.8167 198° South 160 184 12,000 1,500 Climbing Vancouver Center
Mon 02:59:09 PM 50.6333 -120.8833 220° Southwest 170 196 13,500 1,450 Climbing Vancouver Center
Mon 03:00:09 PM 50.6000 -120.9000 198° South 170 196 14,900 1,250 Climbing Vancouver Center
Mon 03:01:09 PM 50.5500 -120.9667 220° Southwest 170 196 16,000 600 Climbing Vancouver Center
Mon 03:02:09 PM 50.5000 -121.0167 212° Southwest 210 242 16,100 600 Climbing Vancouver Center
Mon 03:03:09 PM 50.4500 -121.0667 212° Southwest 240 276 17,200 900 Climbing Vancouver Center
Mon 03:04:09 PM 50.4167 -121.1333 232° Southwest 230 265 17,900 400 Climbing Vancouver Center
Mon 03:05:09 PM 50.3500 -121.1833 206° Southwest 240 276 18,000 300 Climbing Vancouver Center
Mon 03:06:09 PM 50.2833 -121.2333 206° Southwest 260 299 18,500 750 Climbing Vancouver Center
Mon 03:07:09 PM 50.2333 -121.3000 220° Southwest 250 288 19,500 750 Climbing Vancouver Center
Mon 03:08:09 PM 50.1667 -121.3667 213° Southwest 240 276 20,000 250 Climbing Vancouver Center
Mon 03:09:09 PM 50.1167 -121.4000 203° Southwest 250 288 20,000  Level Vancouver Center
Mon 03:10:09 PM 50.0500 -121.4667 213° Southwest 260 299 20,000  Level Vancouver Center
Mon 03:11:09 PM 49.9833 -121.5333 213° Southwest 270 311 20,000  Level Vancouver Center
Mon 03:12:09 PM 49.9333 -121.6167 227° Southwest 270 311 20,000 -450 Level Vancouver Center
Mon 03:13:09 PM 49.8667 -121.7000 219° Southwest 290 334 19,100 -950 Descending Vancouver Center
Mon 03:14:09 PM 49.8000 -121.7833 219° Southwest 300 345 18,100 -950 Descending Vancouver Center
Mon 03:15:09 PM 49.7333 -121.8833 224° Southwest 310 357 17,200 -900 Descending Vancouver Center
Mon 03:16:09 PM 49.6667 -121.9667 219° Southwest 300 345 16,300 -900 Descending Vancouver Center
Mon 03:17:09 PM 49.6333 -122.0500 238° Southwest 300 345 15,400 -900 Descending Vancouver Center
Mon 03:18:09 PM 49.5500 -122.1333 213° Southwest 300 345 14,500 -900 Descending Vancouver Center
Mon 03:19:09 PM 49.5000 -122.2000 221° Southwest 290 334 13,600 -900 Descending Vancouver Center
Mon 03:20:09 PM 49.4333 -122.2833 219° Southwest 290 334 12,700 -900 Descending Vancouver Center
Mon 03:21:09 PM 49.3833 -122.3667 227° Southwest 280 322 11,800 -950 Descending Vancouver Center
Mon 03:22:09 PM 49.3333 -122.4500 227° Southwest 280 322 10,800 -1,150 Descending Vancouver Center
Mon 03:23:09 PM 49.2667 -122.5500 224° Southwest 270 311 9,500 -1,350 Descending Vancouver Center
Mon 03:24:09 PM 49.2167 -122.6167 221° Southwest 270 311 8,100 -1,550 Descending Vancouver Center
Mon 03:25:09 PM 49.1833 -122.7000 239° Southwest 250 288 6,400 -1,600 Descending Vancouver Center
Mon 03:26:09 PM 49.1500 -122.8000 243° Southwest 240 276 4,900 -1,400 Descending Vancouver Center
Mon 03:27:09 PM 49.1500 -122.8833 270° West 220 253 3,600 -1,150 Descending Vancouver Center
Mon 03:28:09 PM 49.1667 -122.9500 291° West 190 219 2,600 -1,000 Descending Vancouver Center

Login

Don't have an account? Register now (free) for customized features, flight alerts, and more!